createdAt,value
2022-10-23T00:01:18.951Z,16.32
2022-10-23T00:03:46.779Z,16.34
2022-10-23T00:06:14.400Z,16.12
2022-10-23T00:08:42.028Z,15.63
2022-10-23T00:11:11.605Z,15.17
2022-10-23T00:13:38.925Z,15.00
2022-10-23T00:16:06.496Z,14.76
2022-10-23T00:18:33.837Z,15.09
2022-10-23T00:21:01.295Z,15.45
2022-10-23T00:23:28.189Z,15.30
2022-10-23T00:25:55.084Z,15.65
2022-10-23T00:28:21.990Z,16.10
2022-10-23T00:30:48.946Z,16.23
2022-10-23T00:33:15.912Z,16.21
2022-10-23T00:35:43.254Z,15.78
2022-10-23T00:38:11.000Z,16.08
2022-10-23T00:40:39.679Z,15.64
2022-10-23T00:43:07.487Z,16.28
2022-10-23T00:45:34.626Z,15.64
2022-10-23T00:48:02.354Z,15.70
2022-10-23T00:50:32.141Z,16.34
2022-10-23T00:53:01.557Z,16.49
2022-10-23T00:55:29.217Z,16.61
2022-10-23T00:57:56.395Z,16.67
2022-10-23T01:00:26.214Z,16.94
2022-10-23T01:02:53.704Z,16.79
2022-10-23T01:05:24.662Z,17.05
2022-10-23T01:08:00.041Z,17.30
2022-10-23T01:10:40.752Z,17.05
2022-10-23T01:13:34.557Z,16.69
2022-10-23T01:16:21.606Z,16.79
2022-10-23T01:18:56.474Z,16.15
2022-10-23T01:21:58.758Z,16.26
2022-10-23T01:25:03.311Z,15.66
2022-10-23T01:27:43.187Z,15.67
2022-10-23T01:30:12.851Z,15.18
2022-10-23T01:32:51.660Z,15.70
2022-10-23T01:35:33.051Z,15.32
2022-10-23T01:38:18.056Z,14.64
2022-10-23T01:40:49.634Z,14.60
2022-10-23T01:43:29.392Z,14.52
2022-10-23T01:46:03.273Z,14.54
2022-10-23T01:48:30.551Z,14.54
2022-10-23T01:51:00.147Z,14.80
2022-10-23T01:53:30.856Z,15.42
2022-10-23T01:55:59.776Z,15.91
2022-10-23T01:58:27.229Z,16.45
2022-10-23T02:00:57.399Z,16.02
2022-10-23T02:03:24.945Z,16.09
2022-10-23T02:05:51.880Z,16.05
2022-10-23T02:08:18.834Z,16.23
2022-10-23T02:11:09.404Z,16.87
2022-10-23T02:14:03.742Z,17.64
2022-10-23T02:16:37.608Z,17.58
2022-10-23T02:19:31.776Z,16.53
2022-10-23T02:22:08.600Z,17.01
2022-10-23T02:24:58.913Z,16.89
2022-10-23T02:27:42.355Z,16.62
2022-10-23T02:30:11.734Z,16.62
2022-10-23T02:32:45.477Z,16.95
2022-10-23T02:35:12.789Z,17.87
2022-10-23T02:37:39.952Z,17.29
2022-10-23T02:40:09.757Z,17.15
2022-10-23T02:42:43.903Z,17.26
2022-10-23T02:45:28.705Z,16.83
2022-10-23T02:48:33.881Z,18.08
2022-10-23T02:51:10.189Z,18.03
2022-10-23T02:53:49.554Z,17.41
2022-10-23T02:56:21.099Z,16.81
2022-10-23T02:58:56.814Z,16.43
2022-10-23T03:01:29.677Z,16.94
2022-10-23T03:04:01.405Z,17.95
2022-10-23T03:06:28.252Z,18.09
2022-10-23T03:08:59.900Z,17.78
2022-10-23T03:11:26.803Z,18.13
2022-10-23T03:13:53.753Z,18.16
2022-10-23T03:16:20.591Z,17.89
2022-10-23T03:18:47.503Z,17.78
2022-10-23T03:21:14.340Z,18.11
2022-10-23T03:23:41.199Z,17.60
2022-10-23T03:26:09.126Z,18.46
2022-10-23T03:28:36.068Z,18.33
2022-10-23T03:31:03.691Z,18.01
2022-10-23T03:33:31.184Z,17.40
2022-10-23T03:35:58.048Z,17.78
2022-10-23T03:38:24.902Z,17.48
2022-10-23T03:40:51.906Z,17.25
2022-10-23T03:43:18.795Z,17.02
2022-10-23T03:45:45.640Z,17.09
2022-10-23T03:48:12.699Z,16.91
2022-10-23T03:50:39.533Z,16.16
2022-10-23T03:53:06.380Z,15.86
2022-10-23T03:55:33.230Z,15.97
2022-10-23T03:58:00.146Z,15.94
2022-10-23T04:00:26.980Z,15.05
2022-10-23T04:02:53.960Z,15.06
2022-10-23T04:05:20.818Z,15.36
2022-10-23T04:07:47.665Z,16.01
2022-10-23T04:10:14.518Z,16.23
2022-10-23T04:12:41.571Z,15.65
2022-10-23T04:15:09.104Z,15.83
2022-10-23T04:17:35.954Z,15.04
2022-10-23T04:20:02.791Z,14.87
2022-10-23T04:22:29.618Z,14.39
2022-10-23T04:24:56.309Z,13.83
2022-10-23T04:27:23.254Z,13.35
2022-10-23T04:29:50.574Z,13.41
2022-10-23T04:32:17.866Z,12.74
2022-10-23T04:34:44.546Z,12.42
2022-10-23T04:37:11.375Z,12.80
2022-10-23T04:39:38.037Z,12.85
2022-10-23T04:42:04.917Z,13.05
2022-10-23T04:44:31.788Z,13.21
2022-10-23T04:46:58.645Z,13.31
2022-10-23T04:49:25.507Z,13.51
2022-10-23T04:51:52.396Z,13.26
2022-10-23T04:54:19.256Z,13.49
2022-10-23T04:56:46.188Z,13.64
2022-10-23T04:59:13.176Z,13.58
2022-10-23T05:01:40.137Z,13.48
2022-10-23T05:04:07.085Z,13.73
2022-10-23T05:06:33.930Z,14.18
2022-10-23T05:09:00.785Z,14.38
2022-10-23T05:11:27.648Z,13.90
2022-10-23T05:13:54.498Z,13.71
2022-10-23T05:17:02.928Z,13.56
2022-10-23T05:19:33.921Z,14.04
2022-10-23T05:22:00.985Z,13.79
2022-10-23T05:24:27.810Z,14.66
2022-10-23T05:26:54.730Z,15.81
2022-10-23T05:29:21.582Z,15.30
2022-10-23T05:31:55.006Z,15.67
2022-10-23T05:34:23.093Z,16.30
2022-10-23T05:36:50.029Z,16.30
2022-10-23T05:39:17.150Z,16.22
2022-10-23T05:41:44.037Z,16.16
2022-10-23T05:44:10.952Z,15.71
2022-10-23T05:46:42.274Z,16.12
2022-10-23T05:49:09.145Z,16.05
2022-10-23T05:51:40.241Z,16.20
2022-10-23T05:54:10.377Z,16.25
2022-10-23T05:56:41.714Z,16.33
2022-10-23T05:59:09.041Z,15.84
2022-10-23T06:01:37.056Z,15.21
2022-10-23T06:04:04.902Z,14.70
2022-10-23T06:06:31.754Z,14.85
2022-10-23T06:08:58.608Z,15.88
2022-10-23T06:11:25.522Z,16.52
2022-10-23T06:13:52.479Z,17.44
2022-10-23T06:16:22.853Z,18.04
2022-10-23T06:18:49.688Z,18.85
2022-10-23T06:21:16.602Z,19.26
2022-10-23T06:23:44.457Z,19.67
2022-10-23T06:26:12.934Z,20.11
2022-10-23T06:28:40.071Z,19.86
2022-10-23T06:31:08.094Z,20.44
2022-10-23T06:33:34.960Z,21.11
2022-10-23T06:36:02.706Z,21.40
2022-10-23T06:38:29.716Z,21.67
2022-10-23T06:40:57.048Z,22.01
2022-10-23T06:43:23.957Z,21.77
2022-10-23T06:45:50.847Z,22.11
2022-10-23T06:48:17.694Z,22.42
2022-10-23T06:50:44.567Z,23.28
2022-10-23T06:53:12.587Z,23.85
2022-10-23T06:55:42.621Z,24.33
2022-10-23T06:58:11.011Z,24.81
2022-10-23T07:00:39.020Z,25.41
2022-10-23T07:03:06.385Z,24.76
2022-10-23T07:05:33.306Z,24.60
2022-10-23T07:08:00.159Z,26.03
2022-10-23T07:10:27.408Z,27.04
2022-10-23T07:12:54.534Z,28.01
2022-10-23T07:15:21.375Z,27.87
2022-10-23T07:17:48.223Z,27.69
2022-10-23T07:20:15.142Z,28.14
2022-10-23T07:22:42.228Z,27.56
2022-10-23T07:25:09.524Z,27.29
2022-10-23T07:27:38.111Z,26.25
2022-10-23T07:30:05.402Z,27.82
2022-10-23T07:32:32.250Z,27.92
2022-10-23T07:34:59.326Z,28.90
2022-10-23T07:37:26.210Z,28.91
2022-10-23T07:39:53.096Z,29.45
2022-10-23T07:42:19.963Z,28.76
2022-10-23T07:44:46.811Z,29.34
2022-10-23T07:47:13.684Z,30.00
2022-10-23T07:49:40.556Z,30.92
2022-10-23T07:52:07.484Z,31.32
2022-10-23T07:54:34.437Z,31.63
2022-10-23T07:57:01.331Z,32.30
2022-10-23T07:59:28.200Z,32.40
2022-10-23T08:01:58.068Z,31.81
2022-10-23T08:04:25.337Z,31.92
2022-10-23T08:06:52.519Z,30.17
2022-10-23T08:09:19.396Z,29.07
2022-10-23T08:11:46.245Z,28.68
2022-10-23T08:14:13.139Z,26.35
2022-10-23T08:16:40.334Z,28.08
2022-10-23T08:19:08.003Z,28.56
2022-10-23T08:21:34.876Z,28.19
2022-10-23T08:24:01.750Z,28.32
2022-10-23T08:26:31.873Z,28.12
2022-10-23T08:28:59.478Z,28.11
2022-10-23T08:31:26.657Z,28.87
2022-10-23T08:33:53.550Z,27.27
2022-10-23T08:36:22.904Z,28.22
2022-10-23T08:38:50.398Z,28.24
2022-10-23T08:41:44.416Z,26.51
2022-10-23T08:44:24.659Z,28.09
2022-10-23T08:47:06.041Z,28.76
2022-10-23T08:49:35.904Z,28.25
2022-10-23T08:52:14.036Z,27.80
2022-10-23T08:55:03.605Z,27.33
2022-10-23T08:57:40.070Z,27.36
2022-10-23T09:00:15.090Z,28.01
2022-10-23T09:02:50.175Z,27.21
2022-10-23T09:05:42.618Z,27.67
2022-10-23T09:08:28.109Z,27.20
2022-10-23T09:11:27.279Z,27.19
2022-10-23T09:14:25.292Z,26.40
2022-10-23T09:16:52.482Z,25.76
2022-10-23T09:19:27.467Z,26.34
2022-10-23T09:21:55.107Z,26.03
2022-10-23T09:24:23.900Z,26.13
2022-10-23T09:26:52.559Z,26.70
2022-10-23T09:29:24.247Z,27.39
2022-10-23T09:31:56.339Z,26.91
2022-10-23T09:34:26.564Z,25.94
2022-10-23T09:37:01.834Z,25.51
2022-10-23T09:39:33.673Z,25.46
2022-10-23T09:42:02.620Z,24.52
2022-10-23T09:44:32.101Z,24.78
2022-10-23T09:47:11.383Z,24.69
2022-10-23T09:49:40.822Z,24.31
2022-10-23T09:52:10.690Z,23.91
2022-10-23T09:54:39.444Z,23.83
2022-10-23T09:57:25.114Z,23.43
2022-10-23T09:59:54.263Z,23.60
2022-10-23T10:02:28.328Z,23.55
2022-10-23T10:04:55.361Z,23.58
2022-10-23T10:07:25.654Z,23.78
2022-10-23T10:09:56.978Z,24.10
2022-10-23T10:12:23.751Z,23.75
2022-10-23T10:15:07.329Z,23.25
2022-10-23T10:17:51.181Z,22.98
2022-10-23T10:20:27.191Z,22.87
2022-10-23T10:23:02.617Z,22.61
2022-10-23T10:25:43.246Z,22.52
2022-10-23T10:28:19.063Z,22.72
2022-10-23T10:31:16.530Z,23.39
2022-10-23T10:34:22.292Z,23.16
2022-10-23T10:36:58.104Z,22.93
2022-10-23T10:39:39.845Z,23.72
2022-10-23T10:42:42.948Z,23.59
2022-10-23T10:45:34.646Z,23.88
2022-10-23T10:48:26.567Z,23.72
2022-10-23T10:51:01.126Z,22.90
2022-10-23T10:53:49.768Z,22.89
2022-10-23T10:56:19.244Z,21.84
2022-10-23T10:58:51.170Z,21.57
2022-10-23T11:01:31.477Z,21.07
2022-10-23T11:04:39.823Z,21.04
2022-10-23T11:07:20.957Z,20.58
2022-10-23T11:09:48.099Z,20.29
2022-10-23T11:12:18.308Z,20.51
2022-10-23T11:14:45.453Z,20.46
2022-10-23T11:17:39.210Z,20.11
2022-10-23T11:20:32.303Z,19.49
2022-10-23T11:23:32.731Z,20.43
2022-10-23T11:25:59.519Z,20.94
2022-10-23T11:28:59.358Z,21.52
2022-10-23T11:31:44.172Z,21.15
2022-10-23T11:34:34.340Z,21.99
2022-10-23T11:37:01.831Z,22.09
2022-10-23T11:39:30.622Z,22.04
2022-10-23T11:41:59.882Z,22.34
2022-10-23T11:44:39.949Z,22.43
2022-10-23T11:47:39.613Z,21.22
2022-10-23T11:50:07.313Z,21.45
2022-10-23T11:52:42.054Z,21.25
2022-10-23T11:55:20.777Z,21.70
2022-10-23T11:58:05.422Z,21.92
2022-10-23T12:00:34.582Z,21.21
2022-10-23T12:03:02.154Z,21.42
2022-10-23T12:05:38.585Z,22.11
2022-10-23T12:08:07.965Z,22.12
2022-10-23T12:10:36.742Z,21.41
2022-10-23T12:13:06.403Z,21.86
2022-10-23T12:15:37.098Z,21.46
2022-10-23T12:18:15.798Z,21.85
2022-10-23T12:20:45.883Z,21.23
2022-10-23T12:23:33.909Z,22.03
2022-10-23T12:26:07.053Z,21.43
2022-10-23T12:28:39.846Z,21.26
2022-10-23T12:31:34.016Z,22.03
2022-10-23T12:34:19.065Z,22.35
2022-10-23T12:37:13.549Z,21.18
2022-10-23T12:39:40.938Z,21.59
2022-10-23T12:42:20.181Z,21.62
2022-10-23T12:45:01.101Z,21.64
2022-10-23T12:47:29.372Z,22.39
2022-10-23T12:49:56.345Z,22.71
2022-10-23T12:52:25.445Z,21.83
2022-10-23T12:54:52.360Z,22.27
2022-10-23T12:57:24.154Z,22.43
2022-10-23T12:59:52.022Z,22.29
2022-10-23T13:02:24.287Z,22.62
2022-10-23T13:04:53.231Z,21.53
2022-10-23T13:07:22.941Z,22.00
2022-10-23T13:09:49.855Z,22.04
2022-10-23T13:12:24.541Z,21.72
2022-10-23T13:15:17.495Z,21.19
2022-10-23T13:17:59.194Z,21.21
2022-10-23T13:20:28.091Z,20.99
2022-10-23T13:23:33.528Z,20.98
2022-10-23T13:26:02.390Z,21.13
2022-10-23T13:28:50.218Z,21.73
2022-10-23T13:31:17.001Z,21.77
2022-10-23T13:33:46.246Z,21.42
2022-10-23T13:36:16.733Z,21.81
2022-10-23T13:38:59.000Z,22.97
2022-10-23T13:41:27.591Z,22.95
2022-10-23T13:43:54.823Z,22.73
2022-10-23T13:46:24.614Z,22.82
2022-10-23T13:48:51.783Z,22.88
2022-10-23T13:51:25.927Z,22.04
2022-10-23T13:53:53.204Z,22.45
2022-10-23T13:56:21.779Z,22.50
2022-10-23T13:58:49.314Z,22.33
2022-10-23T14:01:25.125Z,22.34
2022-10-23T14:03:52.954Z,21.22
2022-10-23T14:06:19.957Z,21.31
2022-10-23T14:08:46.878Z,21.44
2022-10-23T14:13:47.480Z,23.28
2022-10-23T14:16:16.043Z,21.67
2022-10-23T14:18:43.273Z,23.09
2022-10-23T14:21:13.014Z,22.83
2022-10-23T14:23:39.902Z,23.43
2022-10-23T14:26:08.991Z,21.98
2022-10-23T14:28:35.883Z,21.57
2022-10-23T14:31:07.926Z,21.81
2022-10-23T14:33:34.889Z,20.86
2022-10-23T14:36:01.916Z,21.00
2022-10-23T14:38:29.130Z,20.42
2022-10-23T14:40:55.997Z,21.51
2022-10-23T14:43:23.942Z,20.38
2022-10-23T14:45:50.882Z,20.55
2022-10-23T14:48:17.871Z,21.86
2022-10-23T14:50:46.791Z,22.03
2022-10-23T14:53:14.199Z,22.67
2022-10-23T14:55:41.123Z,22.35
2022-10-23T14:58:08.074Z,22.91
2022-10-23T15:00:34.935Z,23.38
2022-10-23T15:03:01.909Z,23.43
2022-10-23T15:05:28.776Z,23.32
2022-10-23T15:07:56.624Z,23.34
2022-10-23T15:10:23.592Z,23.29
2022-10-23T15:12:50.435Z,23.56
2022-10-23T15:15:17.336Z,22.99
2022-10-23T15:17:44.232Z,22.71
2022-10-23T15:20:11.276Z,23.89
2022-10-23T15:22:38.130Z,24.13
2022-10-23T15:25:05.473Z,23.13
2022-10-23T15:27:32.341Z,22.76
2022-10-23T15:29:59.265Z,22.61
2022-10-23T15:32:26.173Z,22.30
2022-10-23T15:34:53.935Z,22.54
2022-10-23T15:37:20.836Z,22.10
2022-10-23T15:39:47.744Z,21.53
2022-10-23T15:42:14.750Z,21.78
2022-10-23T15:44:41.805Z,21.39
2022-10-23T15:47:08.736Z,21.29
2022-10-23T15:49:35.878Z,21.83
2022-10-23T15:52:24.309Z,22.68
2022-10-23T15:54:51.169Z,22.04
2022-10-23T15:57:18.052Z,22.12
2022-10-23T15:59:44.891Z,21.50
2022-10-23T16:02:12.202Z,21.45
2022-10-23T16:04:39.165Z,21.55
2022-10-23T16:07:07.255Z,21.17
2022-10-23T16:09:34.120Z,21.05
2022-10-23T16:12:01.044Z,21.96
2022-10-23T16:14:27.935Z,21.59
2022-10-23T16:16:54.788Z,20.95
2022-10-23T16:19:21.778Z,21.58
2022-10-23T16:21:48.703Z,22.16
2022-10-23T16:24:15.573Z,22.74
2022-10-23T16:26:42.591Z,21.99
2022-10-23T16:29:11.106Z,22.07
2022-10-23T16:31:38.145Z,23.52
2022-10-23T16:34:05.618Z,21.27
2022-10-23T16:36:33.101Z,21.56
2022-10-23T16:39:03.260Z,21.88
2022-10-23T16:41:30.103Z,22.76
2022-10-23T16:43:57.125Z,22.42
2022-10-23T16:46:24.141Z,22.45
2022-10-23T16:48:52.097Z,22.99
2022-10-23T16:51:21.266Z,22.57
2022-10-23T16:53:48.787Z,22.74
2022-10-23T16:56:18.523Z,22.55
2022-10-23T16:58:45.546Z,22.71
2022-10-23T17:01:14.279Z,22.70
2022-10-23T17:03:43.563Z,23.57
2022-10-23T17:06:12.703Z,23.53
2022-10-23T17:08:40.547Z,23.13
2022-10-23T17:11:11.089Z,21.68
2022-10-23T17:13:40.532Z,22.85
2022-10-23T17:16:13.177Z,23.06
2022-10-23T17:18:43.715Z,23.04
2022-10-23T17:21:12.477Z,23.42
2022-10-23T17:23:39.461Z,23.69
2022-10-23T17:26:12.087Z,23.76
2022-10-23T17:28:41.830Z,23.07
2022-10-23T17:31:19.829Z,23.22
2022-10-23T17:33:47.996Z,23.63
2022-10-23T17:36:16.203Z,23.70
2022-10-23T17:38:46.340Z,22.38
2022-10-23T17:41:15.832Z,22.94
2022-10-23T17:43:43.239Z,23.46
2022-10-23T17:46:12.065Z,23.31
2022-10-23T17:48:39.823Z,22.97
2022-10-23T17:51:12.371Z,23.61
2022-10-23T17:53:41.374Z,23.17
2022-10-23T17:56:11.282Z,23.34
2022-10-23T17:58:38.280Z,23.33
2022-10-23T18:01:10.145Z,23.34
2022-10-23T18:03:38.176Z,22.61
2022-10-23T18:06:12.833Z,21.63
2022-10-23T18:08:42.665Z,22.65
2022-10-23T18:13:47.189Z,22.56
2022-10-23T18:16:14.378Z,24.04
2022-10-23T18:18:42.743Z,22.96
2022-10-23T18:21:10.537Z,23.20
2022-10-23T18:23:37.593Z,22.82
2022-10-23T18:26:05.432Z,23.33
2022-10-23T18:28:32.832Z,22.83
2022-10-23T18:30:59.682Z,21.46
2022-10-23T18:33:26.876Z,20.73
2022-10-23T18:35:53.814Z,21.81
2022-10-23T18:38:20.677Z,22.19
2022-10-23T18:40:53.962Z,22.16
2022-10-23T18:43:41.983Z,22.19
2022-10-23T18:46:08.052Z,22.13
2022-10-23T18:48:35.723Z,21.94
2022-10-23T18:51:02.623Z,21.05
2022-10-23T18:53:29.594Z,21.42
2022-10-23T18:55:56.499Z,21.75
2022-10-23T18:58:23.364Z,21.85
2022-10-23T19:00:50.288Z,22.44
2022-10-23T19:09:28.359Z,21.78
2022-10-23T19:14:41.728Z,21.83
2022-10-23T19:17:18.372Z,21.94
2022-10-23T19:19:48.546Z,21.56
2022-10-23T19:22:17.575Z,21.36
2022-10-23T19:24:48.476Z,21.86
2022-10-23T19:27:15.569Z,21.53
2022-10-23T19:29:45.246Z,21.23
2022-10-23T19:32:12.341Z,20.74
2022-10-23T19:34:39.300Z,20.34
2022-10-23T19:37:06.226Z,21.04
2022-10-23T19:39:33.129Z,21.55
2022-10-23T19:54:31.752Z,22.32
2022-10-23T19:56:58.843Z,23.04
2022-10-23T19:59:25.698Z,22.83
2022-10-23T20:01:52.920Z,22.42
2022-10-23T20:04:19.935Z,22.24
2022-10-23T20:06:47.690Z,21.51
2022-10-23T20:09:14.566Z,21.65
2022-10-23T20:11:41.590Z,21.78
2022-10-23T20:14:08.443Z,21.28
2022-10-23T20:16:37.390Z,21.36
2022-10-23T20:19:07.156Z,20.77
2022-10-23T20:21:41.886Z,20.57
2022-10-23T20:24:10.469Z,21.06
2022-10-23T20:26:40.537Z,21.43
2022-10-23T20:29:07.447Z,22.26
2022-10-23T20:31:36.566Z,22.13
2022-10-23T20:34:03.580Z,20.74
2022-10-23T20:36:35.638Z,22.04
2022-10-23T20:39:05.571Z,22.26
2022-10-23T20:41:33.877Z,22.13
2022-10-23T20:44:25.692Z,22.13
2022-10-23T20:46:53.196Z,22.30
2022-10-23T20:49:20.450Z,22.43
2022-10-23T20:51:55.339Z,22.80
2022-10-23T20:54:27.012Z,21.44
2022-10-23T20:56:53.895Z,21.31
2022-10-23T20:59:20.936Z,21.89
2022-10-23T21:01:50.002Z,21.04
2022-10-23T21:04:22.324Z,21.53
2022-10-23T21:07:10.868Z,21.79
2022-10-23T21:09:39.241Z,22.05
2022-10-23T21:14:42.238Z,22.49
2022-10-23T21:17:11.072Z,23.00
2022-10-23T21:19:39.365Z,22.62
2022-10-23T21:22:06.239Z,22.31
2022-10-23T21:24:33.287Z,21.56
2022-10-23T21:27:00.225Z,21.53
2022-10-23T21:29:27.111Z,21.70
2022-10-23T21:31:58.233Z,21.39
2022-10-23T21:34:26.188Z,21.33
2022-10-23T21:37:11.957Z,21.11
2022-10-23T21:39:39.179Z,21.18
2022-10-23T21:42:06.099Z,19.25
2022-10-23T21:44:32.974Z,17.91
2022-10-23T21:46:59.900Z,18.05
2022-10-23T21:49:26.784Z,17.87
2022-10-23T21:51:55.297Z,17.43
2022-10-23T21:54:22.637Z,17.08
2022-10-23T21:56:51.245Z,17.22
2022-10-23T21:59:20.492Z,17.04
2022-10-23T22:01:48.697Z,18.55
2022-10-23T22:04:19.519Z,18.92
2022-10-23T22:06:48.081Z,19.23
2022-10-23T22:09:19.087Z,19.80
2022-10-23T22:11:46.110Z,20.10
2022-10-23T22:14:32.148Z,20.47
2022-10-23T22:16:59.141Z,19.99
2022-10-23T22:19:26.237Z,18.67
2022-10-23T22:21:53.127Z,18.29
2022-10-23T22:24:20.382Z,18.45
2022-10-23T22:26:50.008Z,20.03
2022-10-23T22:29:19.491Z,19.89
2022-10-23T22:31:49.669Z,20.40
2022-10-23T22:34:48.318Z,19.90
2022-10-23T22:37:14.849Z,20.03
2022-10-23T22:39:41.833Z,20.31
2022-10-23T22:42:09.070Z,20.39
2022-10-23T22:44:36.115Z,20.20
2022-10-23T22:47:03.367Z,20.67
2022-10-23T22:49:30.233Z,20.91
2022-10-23T22:51:57.132Z,21.15
2022-10-23T22:54:24.047Z,21.39
2022-10-23T22:56:50.954Z,21.45
2022-10-23T22:59:17.872Z,21.58
2022-10-23T23:01:46.651Z,22.47
2022-10-23T23:07:06.813Z,21.87
2022-10-23T23:09:36.833Z,21.67
2022-10-23T23:12:04.042Z,21.86
2022-10-23T23:14:30.903Z,22.20
2022-10-23T23:16:57.840Z,21.91
2022-10-23T23:19:26.724Z,21.91
2022-10-23T23:21:58.032Z,21.84
2022-10-23T23:24:25.573Z,22.12
2022-10-23T23:26:52.649Z,22.71
2022-10-23T23:29:19.833Z,22.41
2022-10-23T23:31:46.810Z,22.88
2022-10-23T23:34:13.711Z,22.37
2022-10-23T23:36:41.400Z,21.82
2022-10-23T23:39:08.260Z,22.35
2022-10-23T23:41:35.127Z,22.02
2022-10-23T23:44:01.991Z,21.87
2022-10-23T23:46:28.960Z,21.73
2022-10-23T23:48:55.892Z,21.42
2022-10-23T23:51:24.187Z,21.44
2022-10-23T23:53:51.633Z,21.78
2022-10-23T23:56:19.587Z,23.04
2022-10-23T23:58:46.486Z,22.52
